Ballardsville, Kentucky
Current Conditions -  °F | °C
As of 8:53 AM on Saturday 20 Dec 2014 (Local Time) from KLOU Reporting Station
Haze Haze  
Wind Chill: 24°   Ceiling: 5500
Heat Index: 29°   Visibility: 5mi
Dew Point: 25°   Wind: 5mph
Humidity: 85%   Direction: 50°NE
Pressure: 30.29"   Gusts: NA
Location:  38.342°N, 85.4306°W
Report Text: KLOU 201353Z 05004KT 5SM BR BKN055 BKN070 OVC110 M02/M04 A3029 RMK AO2 SNB07E30 SLP262 P0000 T10171039
Loading
Personal Weather Stations






























Interactive Weather Map New forecast layout! Learn more

10-Day Weather Forecast

Advertisements
Track Severe Weather on mobile